Time;durP1;ratioP1;P1;durP2;ratioP2;P2;SDS_P1;SDS_P2;PMS_P1;PMS_P2;Temp;Humidity;BMP_temperature;BMP_pressure;BME280_temperature;BME280_humidity;BME280_pressure;Samples;Min_cycle;Max_cycle;Signal;HPM_P1;HPM_P2
2022/10/18 00:00:37;;;;;;;2.72;1.05;;;;;;;10.87;100.00;101236.66;4956251;29;20055;-90
2022/10/18 00:03:05;;;;;;;2.08;1.00;;;;;;;11.07;100.00;101288.47;4940541;29;20533;-89
2022/10/18 00:05:32;;;;;;;1.73;0.93;;;;;;;10.98;100.00;101293.06;4940361;28;20080;-91
2022/10/18 00:07:59;;;;;;;4.80;1.00;;;;;;;10.68;100.00;101258.19;4943825;28;20094;-90
2022/10/18 00:10:26;;;;;;;2.28;0.90;;;;;;;10.96;100.00;101299.25;4936542;29;20047;-91
2022/10/18 00:12:53;;;;;;;1.75;0.90;;;;;;;10.62;100.00;101258.34;4967289;28;20486;-90
2022/10/18 00:15:19;;;;;;;2.13;0.90;;;;;;;10.98;100.00;101311.41;4950293;29;20133;-91
2022/10/18 00:17:46;;;;;;;1.30;0.90;;;;;;;10.80;100.00;101291.88;4955757;28;20055;-90
2022/10/18 00:20:13;;;;;;;2.20;0.93;;;;;;;10.62;100.00;101271.44;4953031;28;20052;-90
2022/10/18 00:22:40;;;;;;;2.17;0.90;;;;;;;10.80;100.00;101309.31;4947257;29;20055;-89
2022/10/18 00:25:08;;;;;;;3.13;0.95;;;;;;;10.98;100.00;101337.63;4946562;28;20142;-90
2022/10/18 00:27:35;;;;;;;3.30;1.02;;;;;;;10.74;100.00;101322.63;4944664;29;20048;-90
2022/10/18 00:30:02;;;;;;;3.67;1.10;;;;;;;10.72;100.00;101334.91;4939406;29;20340;-90
2022/10/18 00:32:29;;;;;;;3.75;0.95;;;;;;;10.78;100.00;101340.84;4958918;28;20093;-90
2022/10/18 00:34:56;;;;;;;4.38;1.20;;;;;;;10.68;100.00;101317.53;4956086;28;20078;-90
2022/10/18 00:37:23;;;;;;;1.55;0.90;;;;;;;10.85;100.00;101357.22;4971992;28;20058;-90
2022/10/18 00:39:50;;;;;;;2.05;0.90;;;;;;;10.77;100.00;101360.06;4972379;28;20408;-90
2022/10/18 00:42:19;;;;;;;2.25;1.10;;;;;;;10.77;100.00;101378.38;4969623;28;20098;-90
2022/10/18 00:44:46;;;;;;;2.42;0.90;;;;;;;11.06;100.00;101375.84;4966812;28;20051;-90
2022/10/18 00:47:16;;;;;;;4.05;0.80;;;;;;;10.83;100.00;101346.78;4953765;29;20102;-90
2022/10/18 00:49:49;;;;;;;3.00;0.90;;;;;;;10.51;100.00;101350.31;4974802;28;20051;-90
2022/10/18 00:52:22;;;;;;;3.07;1.00;;;;;;;10.97;100.00;101379.59;4968397;28;20513;-90
2022/10/18 00:54:51;;;;;;;3.30;0.80;;;;;;;10.91;100.00;101393.72;4961695;28;20473;-90
2022/10/18 00:57:18;;;;;;;8.13;1.02;;;;;;;10.96;100.00;101396.19;4958632;28;20440;-90
2022/10/18 00:59:45;;;;;;;1.48;0.82;;;;;;;10.96;100.00;101422.41;4970940;28;20051;-90
2022/10/18 01:02:17;;;;;;;3.60;0.80;;;;;;;10.90;100.00;101406.88;4969855;28;20445;-90
2022/10/18 01:04:47;;;;;;;2.22;0.80;;;;;;;10.91;100.00;101396.34;4958433;28;20497;-90
2022/10/18 01:07:35;;;;;;;2.30;0.88;;;;;;;11.26;100.00;101446.00;4964549;28;20055;-90
2022/10/18 01:10:11;;;;;;;3.58;0.90;;;;;;;11.18;100.00;101457.56;4975452;28;20046;-90
2022/10/18 01:12:38;;;;;;;3.83;0.90;;;;;;;11.07;100.00;101474.53;4974071;28;20101;-90
2022/10/18 01:15:31;;;;;;;5.53;0.98;;;;;;;11.17;100.00;101470.72;4958503;28;20047;-89
2022/10/18 01:18:07;;;;;;;2.25;0.90;;;;;;;11.23;100.00;101477.59;4973497;28;20054;-90
2022/10/18 01:20:40;;;;;;;3.13;0.90;;;;;;;11.21;100.00;101485.47;4957401;28;20505;-90
2022/10/18 01:23:23;;;;;;;1.70;0.80;;;;;;;11.24;100.00;101495.84;4973955;28;20401;-90
2022/10/18 01:25:55;;;;;;;3.75;1.00;;;;;;;11.13;100.00;101514.50;4975118;28;20501;-90
2022/10/18 01:29:11;;;;;;;4.55;1.00;;;;;;;11.30;100.00;101521.91;4975072;28;20051;-90
2022/10/18 01:31:45;;;;;;;1.35;0.80;;;;;;;10.96;100.00;101462.59;4922107;28;20182;-89
2022/10/18 01:34:13;;;;;;;;;;;;;;;11.30;100.00;101539.41;4969881;28;20055;-90
2022/10/18 01:36:45;;;;;;;4.72;1.00;;;;;;;10.89;100.00;101509.94;4966193;28;19921;-90
2022/10/18 01:39:17;;;;;;;5.47;1.00;;;;;;;10.88;100.00;101518.72;4973521;28;20512;-90
2022/10/18 01:41:46;;;;;;;2.47;0.90;;;;;;;10.85;100.00;101522.25;4966279;28;20058;-90
2022/10/18 01:44:19;;;;;;;2.80;1.10;;;;;;;11.18;100.00;101541.47;4974916;28;20047;-90
2022/10/18 01:46:47;;;;;;;1.90;0.80;;;;;;;10.86;100.00;101502.19;4973957;28;20613;-91
2022/10/18 01:49:14;;;;;;;2.58;0.90;;;;;;;11.19;100.00;101564.16;4973479;28;20158;-90
2022/10/18 01:51:41;;;;;;;2.22;0.90;;;;;;;10.85;100.00;101552.84;4951345;28;20062;-90
2022/10/18 01:54:10;;;;;;;4.20;1.00;;;;;;;10.74;100.00;101569.69;4957036;28;20154;-90
2022/10/18 01:56:56;;;;;;;3.03;1.20;;;;;;;10.53;100.00;101586.78;4953900;28;20047;-90
2022/10/18 01:59:47;;;;;;;2.65;1.08;;;;;;;10.42;100.00;101587.03;4971335;28;20059;-90
2022/10/18 02:02:48;;;;;;;3.00;1.05;;;;;;;10.44;100.00;101585.22;4964368;28;20047;-90
2022/10/18 02:05:28;;;;;;;3.00;1.00;;;;;;;10.14;100.00;101555.34;4972532;28;20097;-90
2022/10/18 02:08:14;;;;;;;2.38;0.80;;;;;;;10.53;100.00;101612.09;4956421;28;20402;-90
2022/10/18 02:11:03;;;;;;;4.22;0.90;;;;;;;10.91;100.00;101621.66;4958285;28;20054;-90
2022/10/18 02:13:36;;;;;;;1.35;0.85;;;;;;;10.73;100.00;101609.88;4956367;28;20046;-89
2022/10/18 02:16:28;;;;;;;5.18;1.10;;;;;;;10.69;100.00;101634.41;4967916;28;20050;-91
2022/10/18 02:19:04;;;;;;;4.13;1.10;;;;;;;10.74;100.00;101626.44;4933103;28;20059;-90
2022/10/18 02:21:31;;;;;;;2.92;1.00;;;;;;;10.81;100.00;101648.97;4963056;28;20051;-89
2022/10/18 02:24:01;;;;;;;1.63;0.82;;;;;;;10.87;100.00;101641.00;4973003;28;20054;-90
2022/10/18 02:26:28;;;;;;;2.65;0.88;;;;;;;10.85;100.00;101642.75;4961409;28;20046;-89
2022/10/18 02:28:55;;;;;;;4.15;1.27;;;;;;;10.99;100.00;101661.63;4953782;28;20047;-90
2022/10/18 02:31:28;;;;;;;4.40;1.70;;;;;;;11.05;100.00;101663.25;4951092;28;20670;-89
2022/10/18 02:34:08;;;;;;;5.80;1.10;;;;;;;11.07;100.00;101686.81;4970835;28;20051;-90
2022/10/18 02:36:52;;;;;;;4.38;1.00;;;;;;;10.93;100.00;101682.75;4972087;28;20695;-89
2022/10/18 02:39:24;;;;;;;2.55;0.90;;;;;;;10.75;100.00;101657.00;4972479;28;20129;-90
2022/10/18 02:41:53;;;;;;;5.63;1.20;;;;;;;10.86;100.00;101670.69;4970401;28;20050;-90
2022/10/18 02:44:19;;;;;;;3.00;0.90;;;;;;;10.61;100.00;101660.78;4955585;28;20801;-90
2022/10/18 02:46:46;;;;;;;2.70;1.00;;;;;;;10.87;100.00;101679.41;4965784;28;20172;-90
2022/10/18 02:49:13;;;;;;;3.35;0.90;;;;;;;10.83;100.00;101652.41;4943321;28;20444;-90
2022/10/18 02:51:40;;;;;;;2.33;0.90;;;;;;;10.89;100.00;101662.78;4956673;28;20063;-91
2022/10/18 02:54:07;;;;;;;2.65;0.90;;;;;;;10.70;100.00;101671.97;4972383;28;20113;-89
2022/10/18 02:56:34;;;;;;;3.28;1.00;;;;;;;10.51;100.00;101668.91;4956809;28;20106;-89
2022/10/18 02:59:02;;;;;;;6.13;1.10;;;;;;;10.79;100.00;101675.22;4971773;28;20758;-89
2022/10/18 03:01:29;;;;;;;5.65;1.33;;;;;;;10.86;100.00;101709.16;4972392;28;20055;-89
2022/10/18 03:03:56;;;;;;;6.18;1.13;;;;;;;10.88;100.00;101712.59;4969821;28;20070;-90
2022/10/18 03:06:23;;;;;;;5.03;0.98;;;;;;;10.70;100.00;101687.69;4972120;28;20051;-90
2022/10/18 03:08:49;;;;;;;5.72;1.50;;;;;;;10.79;100.00;101700.56;4963286;28;20055;-90
2022/10/18 03:11:16;;;;;;;3.13;1.00;;;;;;;11.07;100.00;101724.34;4951490;28;20050;-90
2022/10/18 03:13:43;;;;;;;3.00;1.02;;;;;;;10.45;100.00;101670.75;4971416;28;20737;-90
2022/10/18 03:16:11;;;;;;;3.28;1.02;;;;;;;10.73;100.00;101708.53;4970564;28;20051;-90
2022/10/18 03:18:37;;;;;;;5.90;1.10;;;;;;;11.00;100.00;101713.16;4958352;28;20551;-90
2022/10/18 03:21:05;;;;;;;1.63;0.80;;;;;;;11.19;100.00;101749.38;4955768;28;20063;-90
2022/10/18 03:23:33;;;;;;;4.50;1.02;;;;;;;11.29;100.00;101753.53;4955501;28;20837;-89
2022/10/18 03:26:00;;;;;;;5.20;1.10;;;;;;;11.00;100.00;101755.06;4956498;28;20062;-90
2022/10/18 03:28:27;;;;;;;3.92;1.27;;;;;;;10.95;100.00;101730.75;4959163;28;20058;-89
2022/10/18 03:31:02;;;;;;;5.80;1.23;;;;;;;11.18;100.00;101756.41;4971343;28;20059;-90
2022/10/18 03:33:31;;;;;;;5.13;1.10;;;;;;;10.64;100.00;101728.81;4963354;28;20055;-89
2022/10/18 03:35:58;;;;;;;4.28;1.05;;;;;;;10.95;100.00;101759.56;4975622;28;20058;-90
2022/10/18 03:38:25;;;;;;;5.38;1.13;;;;;;;10.80;100.00;101788.72;4972680;28;20055;-90
2022/10/18 03:40:51;;;;;;;2.58;1.02;;;;;;;10.55;100.00;101770.94;4952028;28;20046;-90
2022/10/18 03:43:18;;;;;;;7.30;1.30;;;;;;;10.35;100.00;101767.84;4976827;28;20102;-90
2022/10/18 03:45:45;;;;;;;4.50;1.15;;;;;;;10.60;100.00;101789.16;4959568;28;20055;-90
2022/10/18 03:48:12;;;;;;;5.03;1.10;;;;;;;10.39;100.00;101788.72;4941120;29;20482;-90
2022/10/18 03:50:39;;;;;;;4.68;1.48;;;;;;;10.31;100.00;101781.88;4971235;28;20043;-89
2022/10/18 03:53:05;;;;;;;5.10;1.30;;;;;;;10.51;100.00;101784.97;4972973;28;20075;-90
2022/10/18 03:55:32;;;;;;;4.10;1.10;;;;;;;10.22;100.00;101767.19;4960287;28;20437;-90
2022/10/18 03:57:59;;;;;;;11.10;2.45;;;;;;;10.36;100.00;101780.91;4959830;28;20073;-90
2022/10/18 04:00:26;;;;;;;2.35;1.05;;;;;;;10.37;100.00;101795.69;4956247;29;20505;-90
2022/10/18 04:02:52;;;;;;;3.33;0.98;;;;;;;10.38;100.00;101813.16;4971417;28;20047;-89
2022/10/18 04:05:26;;;;;;;6.38;1.00;;;;;;;10.52;100.00;101818.13;4948908;29;20056;-90
2022/10/18 04:07:53;;;;;;;5.38;1.55;;;;;;;10.27;100.00;101775.81;4961970;28;20055;-90
2022/10/18 04:10:20;;;;;;;4.20;1.30;;;;;;;10.48;100.00;101807.72;4974836;28;20688;-90
2022/10/18 04:12:47;;;;;;;4.55;1.00;;;;;;;10.51;100.00;101811.16;4957618;28;20058;-90
2022/10/18 04:15:14;;;;;;;5.38;1.65;;;;;;;10.36;100.00;101807.09;4959925;28;20062;-91
2022/10/18 04:17:41;;;;;;;3.00;1.00;;;;;;;10.53;100.00;101839.91;4955931;29;20047;-91
2022/10/18 04:20:08;;;;;;;5.53;1.48;;;;;;;10.18;100.00;101816.13;4959909;28;20046;-91
2022/10/18 04:22:35;;;;;;;2.95;1.05;;;;;;;10.60;100.00;101836.28;4956463;28;20106;-90
2022/10/18 04:25:02;;;;;;;7.07;3.17;;;;;;;10.60;100.00;101852.00;4975791;28;20059;-91
2022/10/18 04:27:29;;;;;;;6.50;1.15;;;;;;;10.55;100.00;101865.19;4972099;28;20050;-91
2022/10/18 04:29:56;;;;;;;4.53;1.23;;;;;;;10.38;100.00;101844.56;4956170;28;20547;-90
2022/10/18 04:32:23;;;;;;;3.50;1.42;;;;;;;10.36;100.00;101835.03;4962913;28;20121;-91
2022/10/18 04:34:49;;;;;;;2.15;0.90;;;;;;;10.52;100.00;101860.03;4957345;28;20051;-91
2022/10/18 04:37:16;;;;;;;2.60;1.02;;;;;;;10.22;100.00;101841.34;4975711;28;20054;-91
2022/10/18 04:39:47;;;;;;;1.40;0.90;;;;;;;10.48;100.00;101874.03;4958886;28;20224;-91
2022/10/18 04:42:19;;;;;;;4.65;1.00;;;;;;;10.65;100.00;101894.69;4940698;29;20057;-91
2022/10/18 04:44:46;;;;;;;4.20;1.00;;;;;;;10.63;100.00;101893.84;4971231;28;20062;-90
2022/10/18 04:47:13;;;;;;;3.78;1.38;;;;;;;10.51;100.00;101894.09;4960835;28;20050;-90
2022/10/18 04:49:40;;;;;;;5.60;1.10;;;;;;;10.75;100.00;101903.25;4958058;28;20046;-91
2022/10/18 04:52:07;;;;;;;6.10;1.30;;;;;;;10.66;100.00;101906.91;4959720;28;20105;-90
2022/10/18 04:54:34;;;;;;;4.88;1.10;;;;;;;10.85;100.00;101920.47;4976156;28;20440;-91
2022/10/18 04:57:01;;;;;;;4.80;1.20;;;;;;;10.55;100.00;101886.16;4966507;28;20054;-91
2022/10/18 04:59:28;;;;;;;2.15;1.00;;;;;;;10.68;100.00;101922.56;4978286;28;20537;-91
2022/10/18 05:01:54;;;;;;;4.57;1.05;;;;;;;10.27;100.00;101912.81;4976106;28;20129;-90
2022/10/18 05:04:21;;;;;;;3.17;1.08;;;;;;;10.49;100.00;101908.97;4971518;28;20047;-91
2022/10/18 05:06:48;;;;;;;4.45;1.35;;;;;;;10.48;100.00;101918.56;4962482;28;20058;-91
2022/10/18 05:09:15;;;;;;;3.53;1.00;;;;;;;10.24;100.00;101878.81;4974705;28;20448;-90
2022/10/18 05:11:41;;;;;;;8.25;1.60;;;;;;;10.28;100.00;101884.84;4975301;28;20051;-90
2022/10/18 05:14:09;;;;;;;3.63;1.00;;;;;;;10.34;100.00;101891.75;4974320;28;20050;-91
2022/10/18 05:16:36;;;;;;;5.03;1.15;;;;;;;10.25;100.00;101898.88;4961068;28;20062;-91
2022/10/18 05:19:04;;;;;;;3.88;1.13;;;;;;;10.42;100.00;101940.47;4958283;28;20051;-91
2022/10/18 05:21:31;;;;;;;4.72;1.40;;;;;;;10.37;100.00;101918.75;4961304;28;20055;-91
2022/10/18 05:23:58;;;;;;;4.30;1.20;;;;;;;10.34;100.00;101907.47;4950822;28;20497;-91
2022/10/18 05:26:25;;;;;;;6.05;1.00;;;;;;;10.71;100.00;101944.34;4961025;28;20130;-91
2022/10/18 05:28:51;;;;;;;3.22;1.08;;;;;;;10.71;100.00;101960.06;4958143;28;20128;-91
2022/10/18 05:31:18;;;;;;;1.90;1.10;;;;;;;10.53;100.00;101934.19;4960027;28;20070;-91
2022/10/18 05:33:45;;;;;;;3.50;1.10;;;;;;;10.74;100.00;101969.59;4974189;28;20101;-92
2022/10/18 05:36:12;;;;;;;2.30;1.02;;;;;;;10.21;100.00;101912.88;4974151;28;20050;-92
2022/10/18 05:38:44;;;;;;;4.75;1.10;;;;;;;10.50;100.00;101952.56;4962468;28;20457;-91
2022/10/18 05:41:20;;;;;;;3.97;1.30;;;;;;;10.77;100.00;101987.91;4973176;28;20047;-90
2022/10/18 05:43:46;;;;;;;2.80;0.98;;;;;;;10.70;100.00;101995.00;4957092;28;20413;-90
2022/10/18 05:46:13;;;;;;;2.80;1.08;;;;;;;10.61;100.00;102000.41;4970804;28;20462;-90
2022/10/18 05:48:43;;;;;;;3.45;1.10;;;;;;;10.70;100.00;101991.53;4956268;28;20088;-91
2022/10/18 05:51:10;;;;;;;6.40;1.23;;;;;;;10.77;100.00;102022.81;4975410;28;20051;-91
2022/10/18 05:53:37;;;;;;;8.95;1.38;;;;;;;10.66;100.00;102003.81;4957071;28;20050;-90
2022/10/18 05:56:05;;;;;;;7.88;1.85;;;;;;;10.56;100.00;101987.38;4974392;28;20069;-91
2022/10/18 05:58:32;;;;;;;3.58;1.13;;;;;;;10.40;100.00;102010.34;4954730;28;20066;-91
2022/10/18 06:01:04;;;;;;;5.80;1.35;;;;;;;10.47;100.00;102010.25;4959430;28;20054;-91
2022/10/18 06:03:31;;;;;;;5.65;1.20;;;;;;;10.17;100.00;102007.22;4966634;28;20051;-91
2022/10/18 06:06:03;;;;;;;5.25;1.80;;;;;;;10.34;100.00;102027.91;4971581;28;20055;-90
2022/10/18 06:08:31;;;;;;;8.00;1.48;;;;;;;10.10;100.00;102029.97;4949265;28;20050;-91
2022/10/18 06:10:58;;;;;;;7.68;1.25;;;;;;;10.12;100.00;102048.28;4965431;28;20400;-91
2022/10/18 06:13:25;;;;;;;5.47;1.40;;;;;;;10.03;100.00;102000.41;4956476;28;20117;-91
2022/10/18 06:15:56;;;;;;;7.57;1.50;;;;;;;10.24;100.00;102032.41;4973411;28;20050;-91
2022/10/18 06:18:23;;;;;;;5.68;1.42;;;;;;;10.07;100.00;101998.63;4954468;28;20445;-91
2022/10/18 06:20:57;;;;;;;6.63;1.23;;;;;;;10.40;100.00;102047.00;4950775;29;20058;-91
2022/10/18 06:23:26;;;;;;;6.00;1.20;;;;;;;10.47;100.00;102054.78;4969209;28;20397;-91
2022/10/18 06:26:01;;;;;;;8.07;1.25;;;;;;;10.30;100.00;102048.00;4974174;28;20066;-90
2022/10/18 06:28:28;;;;;;;4.45;1.00;;;;;;;10.28;100.00;102060.25;4957389;28;20083;-91
2022/10/18 06:30:56;;;;;;;8.32;1.48;;;;;;;10.02;100.00;102042.31;4968953;28;20055;-91
2022/10/18 06:33:23;;;;;;;4.28;1.45;;;;;;;9.98;100.00;102040.63;4959917;28;20089;-91
2022/10/18 06:35:58;;;;;;;4.40;1.17;;;;;;;10.04;100.00;102058.88;4961744;28;20485;-90
2022/10/18 06:38:27;;;;;;;8.82;1.60;;;;;;;10.15;100.00;102097.97;4962585;28;20047;-89
2022/10/18 06:40:55;;;;;;;9.77;1.95;;;;;;;10.10;100.00;102078.84;4960981;28;20458;-89
2022/10/18 06:43:22;;;;;;;8.50;1.48;;;;;;;10.29;100.00;102090.78;4964239;28;20087;-89
2022/10/18 06:45:50;;;;;;;7.53;1.50;;;;;;;10.23;100.00;102098.72;4952245;28;20055;-89
2022/10/18 06:48:17;;;;;;;4.60;1.23;;;;;;;10.10;100.00;102092.78;4954853;28;20059;-89
2022/10/18 06:51:03;;;;;;;5.97;1.30;;;;;;;10.00;100.00;102085.94;4938290;29;20055;-90
2022/10/18 06:53:31;;;;;;;8.43;1.58;;;;;;;10.07;100.00;102083.25;4954556;28;20102;-90
2022/10/18 06:56:12;;;;;;;7.00;1.70;;;;;;;10.04;100.00;102090.28;4953196;28;20417;-89
2022/10/18 06:58:39;;;;;;;6.78;1.63;;;;;;;9.76;100.00;102063.63;4956177;28;20449;-90
2022/10/18 07:01:12;;;;;;;8.63;1.95;;;;;;;9.80;100.00;102067.91;4951575;28;20055;-92
2022/10/18 07:03:41;;;;;;;5.60;1.70;;;;;;;9.87;100.00;102090.50;4964727;28;20126;-92
2022/10/18 07:06:10;;;;;;;8.60;1.40;;;;;;;9.86;100.00;102123.63;4966575;28;20066;-92
2022/10/18 07:08:40;;;;;;;6.57;1.77;;;;;;;9.80;100.00;102107.16;4960127;28;20055;-91
2022/10/18 07:11:12;;;;;;;7.35;2.10;;;;;;;9.34;100.00;102042.34;4970560;28;20065;-92
2022/10/18 07:13:39;;;;;;;11.40;2.33;;;;;;;9.43;100.00;102048.31;4948204;29;20050;-88
2022/10/18 07:16:09;;;;;;;9.88;2.17;;;;;;;9.76;100.00;102097.63;4968947;28;20051;-91
2022/10/18 07:18:50;;;;;;;7.93;2.10;;;;;;;9.41;100.00;102059.69;4949968;28;20094;-91
2022/10/18 07:21:20;;;;;;;14.35;2.40;;;;;;;9.67;100.00;102094.22;4954688;29;20131;-90
2022/10/18 07:23:47;;;;;;;9.02;1.85;;;;;;;9.79;100.00;102118.47;4959792;28;20477;-90
2022/10/18 07:26:17;;;;;;;16.55;3.28;;;;;;;9.69;100.00;102126.44;4959298;28;20500;-91
2022/10/18 07:28:46;;;;;;;8.63;2.55;;;;;;;10.00;100.00;102165.31;4944360;29;20442;-90
2022/10/18 07:31:13;;;;;;;9.18;2.00;;;;;;;9.88;100.00;102147.16;4957161;29;20055;-91
2022/10/18 07:33:41;;;;;;;6.80;2.05;;;;;;;9.89;100.00;102148.88;4966861;28;20046;-92
2022/10/18 07:36:12;;;;;;;9.60;2.63;;;;;;;9.95;100.00;102159.28;4973615;28;20051;-89
2022/10/18 07:38:39;;;;;;;10.30;2.92;;;;;;;10.06;100.00;102182.72;4968461;28;20055;-90
2022/10/18 07:41:11;;;;;;;11.88;2.10;;;;;;;9.87;100.00;102182.06;4953515;28;20090;-90
2022/10/18 07:43:46;;;;;;;9.52;1.95;;;;;;;9.94;100.00;102195.94;4975103;28;20054;-92
2022/10/18 07:46:14;;;;;;;7.07;1.48;;;;;;;10.10;100.00;102200.09;4979143;28;20409;-91
2022/10/18 07:48:41;;;;;;;8.88;1.85;;;;;;;10.01;100.00;102187.13;4975185;28;20065;-92
2022/10/18 07:51:08;;;;;;;9.77;2.25;;;;;;;9.77;100.00;102159.50;4969364;28;20065;-92
2022/10/18 07:53:35;;;;;;;5.95;1.80;;;;;;;10.03;100.00;102182.72;4976352;28;20495;-92
2022/10/18 07:56:05;;;;;;;10.65;1.95;;;;;;;9.99;100.00;102187.13;4952018;28;20058;-91
2022/10/18 07:58:35;;;;;;;10.63;1.67;;;;;;;10.22;100.00;102215.66;4971644;28;20063;-92
2022/10/18 08:01:06;;;;;;;10.70;2.42;;;;;;;10.15;100.00;102186.97;4980513;28;20054;-92
2022/10/18 08:03:34;;;;;;;7.22;1.67;;;;;;;10.66;100.00;102186.28;4957325;29;20074;-92
2022/10/18 08:06:02;;;;;;;9.80;1.60;;;;;;;11.57;100.00;102214.50;4973822;28;20051;-92
2022/10/18 08:08:29;;;;;;;11.43;2.55;;;;;;;11.97;100.00;102250.53;4968679;28;20049;-92
2022/10/18 08:11:09;;;;;;;10.05;1.90;;;;;;;11.87;100.00;102212.19;4968988;28;20058;-92
2022/10/18 08:13:36;;;;;;;8.10;1.88;;;;;;;12.44;100.00;102258.34;4964502;28;20055;-94
2022/10/18 08:16:08;;;;;;;6.55;1.85;;;;;;;12.25;100.00;102214.09;4957930;28;20446;-93
2022/10/18 08:18:36;;;;;;;11.73;2.65;;;;;;;11.88;100.00;102214.81;4989797;28;20058;-93
2022/10/18 08:21:05;;;;;;;6.15;1.50;;;;;;;12.64;100.00;102242.13;4976627;28;20166;-94
2022/10/18 08:23:32;;;;;;;8.45;2.17;;;;;;;13.25;100.00;102251.22;4963621;28;20040;-92
2022/10/18 08:26:05;;;;;;;10.45;2.08;;;;;;;13.05;100.00;102262.25;4987056;28;20046;-90
2022/10/18 08:28:35;;;;;;;9.27;1.55;;;;;;;13.05;100.00;102254.34;4975335;28;20457;-89
2022/10/18 08:31:10;;;;;;;6.93;1.63;;;;;;;13.20;100.00;102289.06;4967977;28;20051;-91
2022/10/18 08:33:38;;;;;;;13.55;2.65;;;;;;;12.83;100.00;102274.13;4974593;28;20046;-91
2022/10/18 08:36:09;;;;;;;9.25;1.83;;;;;;;12.88;100.00;102302.03;4975228;28;20132;-90
2022/10/18 08:38:38;;;;;;;9.18;2.15;;;;;;;12.81;100.00;102261.03;4955472;29;20099;-89
2022/10/18 08:41:20;;;;;;;8.48;1.83;;;;;;;13.41;100.00;102319.28;4951920;28;20046;-94
2022/10/18 08:44:06;;;;;;;10.50;2.03;;;;;;;13.25;100.00;102324.88;4981337;28;20047;-94
2022/10/18 08:46:35;;;;;;;9.43;1.80;;;;;;;12.81;100.00;102318.84;4961392;28;20051;-92
2022/10/18 08:49:04;;;;;;;6.57;1.50;;;;;;;12.64;100.00;102294.69;4957922;28;20051;-92
2022/10/18 08:51:45;;;;;;;8.40;1.98;;;;;;;13.09;100.00;102336.66;4975380;28;20058;-92
2022/10/18 08:54:14;;;;;;;6.10;1.40;;;;;;;12.65;100.00;102310.44;4976731;28;20074;-93
2022/10/18 08:56:46;;;;;;;10.27;2.38;;;;;;;12.75;100.00;102331.25;4975192;28;20053;-92
2022/10/18 08:59:13;;;;;;;16.63;2.20;;;;;;;12.46;100.00;102298.56;4981574;28;20076;-93
2022/10/18 09:01:58;;;;;;;11.00;2.15;;;;;;;12.78;100.00;102334.69;4973276;28;20061;-93
2022/10/18 09:04:49;;;;;;;8.75;1.85;;;;;;;12.57;100.00;102351.78;4973022;28;20054;-91
2022/10/18 09:07:25;;;;;;;7.65;1.60;;;;;;;12.95;100.00;102358.00;4966750;28;20489;-92
2022/10/18 09:10:01;;;;;;;9.18;2.15;;;;;;;12.67;100.00;102355.06;4960447;28;20446;-92
2022/10/18 09:12:31;;;;;;;6.55;1.77;;;;;;;12.45;100.00;102368.66;4971811;28;20137;-93
2022/10/18 09:15:21;;;;;;;6.60;1.58;;;;;;;12.80;100.00;102361.81;4964936;28;20417;-93
2022/10/18 09:17:57;;;;;;;10.25;1.63;;;;;;;13.08;100.00;102371.72;4980090;28;20050;-92
2022/10/18 09:20:34;;;;;;;7.55;1.48;;;;;;;13.22;100.00;102377.53;4979747;28;20051;-93
2022/10/18 09:23:21;;;;;;;8.23;1.77;;;;;;;13.12;100.00;102386.56;4953031;28;20054;-92
2022/10/18 09:26:05;;;;;;;9.50;2.25;;;;;;;13.22;100.00;102363.53;4976778;28;20137;-93
2022/10/18 09:28:35;;;;;;;;;;;;;;;13.19;100.00;102380.25;4953502;28;20483;-92
2022/10/18 09:31:16;;;;;;;14.88;1.80;;;;;;;12.86;100.00;102345.91;4975613;28;19961;-93
2022/10/18 09:33:49;;;;;;;9.13;1.77;;;;;;;12.96;100.00;102335.19;4978654;28;20053;-92
2022/10/18 09:36:21;;;;;;;8.70;1.65;;;;;;;13.28;100.00;102356.38;4960868;28;20055;-93
2022/10/18 09:38:52;;;;;;;9.43;1.70;;;;;;;13.14;100.00;102347.06;4985978;28;20436;-93
2022/10/18 09:41:39;;;;;;;10.02;2.15;;;;;;;13.17;100.00;102368.03;4961352;28;20051;-91
2022/10/18 09:44:17;;;;;;;10.60;1.87;;;;;;;13.39;100.00;102385.09;4977075;28;20054;-93
2022/10/18 09:46:51;;;;;;;8.70;1.70;;;;;;;13.27;100.00;102391.47;4955973;28;20517;-92
2022/10/18 09:49:26;;;;;;;7.03;1.45;;;;;;;13.79;100.00;102412.22;4965421;28;20051;-92
2022/10/18 09:51:53;;;;;;;9.20;1.90;;;;;;;12.81;100.00;102378.44;4972037;28;20051;-94
2022/10/18 09:54:30;;;;;;;12.90;2.13;;;;;;;12.51;100.00;102363.25;4991591;28;20061;-93
2022/10/18 09:57:15;;;;;;;7.93;1.80;;;;;;;12.78;100.00;102400.38;4978144;28;20073;-92
2022/10/18 09:59:46;;;;;;;11.13;2.28;;;;;;;12.83;100.00;102388.03;4978272;28;20063;-93
2022/10/18 10:02:15;;;;;;;10.48;1.92;;;;;;;13.04;100.00;102388.47;4964888;28;20051;-94
2022/10/18 10:04:42;;;;;;;6.50;1.40;;;;;;;12.75;100.00;102391.69;4963120;28;20078;-91
2022/10/18 10:07:17;;;;;;;8.73;2.05;;;;;;;13.00;100.00;102389.44;4982849;28;20047;-92
2022/10/18 10:09:56;;;;;;;8.88;1.60;;;;;;;13.11;100.00;102435.63;4948280;28;20166;-92
2022/10/18 10:12:35;;;;;;;6.63;1.52;;;;;;;13.00;100.00;102398.19;4977056;28;20894;-92
2022/10/18 10:15:21;;;;;;;7.13;1.73;;;;;;;13.32;100.00;102422.09;4959193;28;20051;-91
2022/10/18 10:18:00;;;;;;;9.73;1.85;;;;;;;13.08;100.00;102417.31;4963319;28;20058;-93
2022/10/18 10:20:44;;;;;;;8.50;1.70;;;;;;;13.33;100.00;102434.34;4973266;28;20506;-92
2022/10/18 10:23:23;;;;;;;;;;;;;;;13.40;100.00;102457.88;4971240;28;20051;-92
2022/10/18 10:25:57;;;;;;;6.75;1.80;;;;;;;13.48;100.00;102470.84;4957678;28;20365;-92
2022/10/18 10:28:30;;;;;;;6.90;1.58;;;;;;;13.15;100.00;102459.25;4962809;28;20054;-93
2022/10/18 10:31:23;;;;;;;10.77;2.05;;;;;;;13.09;100.00;102444.47;4967476;28;20066;-93
2022/10/18 10:34:05;;;;;;;7.78;1.90;;;;;;;12.61;100.00;102360.47;4972546;28;20054;-92
2022/10/18 10:36:33;;;;;;;8.88;1.98;;;;;;;12.71;100.00;102412.81;4975246;28;20059;-93
2022/10/18 10:39:11;;;;;;;9.55;2.00;;;;;;;12.97;100.00;102481.53;4973345;28;20070;-93
2022/10/18 10:41:40;;;;;;;9.05;1.60;;;;;;;12.84;100.00;102459.88;4970119;28;20145;-93
2022/10/18 10:44:16;;;;;;;9.00;1.75;;;;;;;13.08;100.00;102480.44;4960284;29;20055;-93
2022/10/18 10:46:43;;;;;;;9.43;1.73;;;;;;;12.97;100.00;102455.25;4950372;28;20046;-90
2022/10/18 10:49:25;;;;;;;10.45;2.25;;;;;;;13.18;100.00;102472.34;4973242;28;20101;-89
2022/10/18 10:52:23;;;;;;;10.15;1.90;;;;;;;12.94;100.00;102426.38;4961559;28;20083;-89
2022/10/18 10:55:36;;;;;;;8.98;1.60;;;;;;;13.42;100.00;102461.34;4956984;28;20049;-88
2022/10/18 10:58:03;;;;;;;7.95;1.88;;;;;;;13.17;100.00;102468.81;4973973;28;20057;-90
2022/10/18 11:00:43;;;;;;;12.15;1.70;;;;;;;13.04;100.00;102423.53;4970759;28;20057;-89
2022/10/18 11:03:20;;;;;;;7.95;1.90;;;;;;;13.53;100.00;102471.63;4974867;28;20050;-89
2022/10/18 11:05:57;;;;;;;10.25;2.15;;;;;;;13.71;100.00;102482.63;4956749;28;20046;-89
2022/10/18 11:08:34;;;;;;;11.93;2.08;;;;;;;13.06;100.00;102434.88;4974374;28;20078;-88
2022/10/18 11:11:19;;;;;;;8.27;1.70;;;;;;;13.42;100.00;102469.22;4963467;28;20055;-89
2022/10/18 11:13:55;;;;;;;7.32;1.50;;;;;;;13.52;100.00;102476.91;4954263;28;20058;-91
2022/10/18 11:16:55;;;;;;;12.65;1.85;;;;;;;13.10;100.00;102473.38;4969157;28;20105;-92
2022/10/18 11:19:33;;;;;;;9.55;1.75;;;;;;;13.21;100.00;102477.53;4959108;28;20057;-91
2022/10/18 11:22:03;;;;;;;7.97;1.55;;;;;;;13.28;100.00;102461.59;4957567;28;20488;-89
2022/10/18 11:24:30;;;;;;;9.88;1.58;;;;;;;13.29;100.00;102475.59;4974294;28;20055;-89
2022/10/18 11:27:40;;;;;;;7.00;1.38;;;;;;;13.62;100.00;102518.78;4969480;28;20741;-88
2022/10/18 11:30:48;;;;;;;12.07;2.38;;;;;;;13.53;100.00;102481.25;4972381;28;20485;-88
2022/10/18 11:33:26;;;;;;;11.27;1.90;;;;;;;13.63;100.00;102478.41;4926463;28;20051;-89
2022/10/18 11:36:23;;;;;;;11.77;2.08;;;;;;;13.49;100.00;102477.81;4951733;29;20054;-88
2022/10/18 11:38:56;;;;;;;6.00;1.63;;;;;;;13.90;100.00;102510.28;4958416;28;20103;-91